createdAt,value
2018-11-07T00:00:57.339Z,8.43
2018-11-07T00:01:57.386Z,8.41
2018-11-07T00:02:57.726Z,8.4
2018-11-07T00:03:57.376Z,8.4
2018-11-07T00:04:57.335Z,8.4
2018-11-07T00:05:57.331Z,8.37
2018-11-07T00:06:57.324Z,8.36
2018-11-07T00:07:57.779Z,8.37
2018-11-07T00:08:57.423Z,8.37
2018-11-07T00:09:57.347Z,8.34
2018-11-07T00:10:57.347Z,8.34
2018-11-07T00:11:57.321Z,8.33
2018-11-07T00:12:57.320Z,8.33
2018-11-07T00:13:58.279Z,8.3
2018-11-07T00:14:57.539Z,8.3
2018-11-07T00:15:57.457Z,8.29
2018-11-07T00:16:57.388Z,8.3
2018-11-07T00:17:57.518Z,8.33
2018-11-07T00:18:57.336Z,8.3
2018-11-07T00:19:57.411Z,8.29
2018-11-07T00:20:57.585Z,8.29
2018-11-07T00:21:57.594Z,8.29
2018-11-07T00:22:57.683Z,8.3
2018-11-07T00:23:58.268Z,8.3
2018-11-07T00:24:57.434Z,8.3
2018-11-07T00:25:57.322Z,8.3
2018-11-07T00:26:57.387Z,8.26
2018-11-07T00:27:57.309Z,8.26
2018-11-07T00:28:57.382Z,8.23
2018-11-07T00:29:57.535Z,8.24
2018-11-07T00:30:57.339Z,8.24
2018-11-07T00:31:57.436Z,8.24
2018-11-07T00:32:57.319Z,8.23
2018-11-07T00:33:57.294Z,8.26
2018-11-07T00:34:57.519Z,8.21
2018-11-07T00:35:57.316Z,8.27
2018-11-07T00:36:57.467Z,8.23
2018-11-07T00:37:57.257Z,8.24
2018-11-07T00:38:57.455Z,8.23
2018-11-07T00:39:57.362Z,8.24
2018-11-07T00:40:57.280Z,8.26
2018-11-07T00:41:57.426Z,8.29
2018-11-07T00:42:57.263Z,8.29
2018-11-07T00:43:57.250Z,8.29
2018-11-07T00:44:57.459Z,8.29
2018-11-07T00:45:57.443Z,8.29
2018-11-07T00:46:57.308Z,8.27
2018-11-07T00:47:57.257Z,8.26
2018-11-07T00:48:57.266Z,8.26
2018-11-07T00:49:57.290Z,8.26
2018-11-07T00:50:57.242Z,8.24
2018-11-07T00:51:57.451Z,8.29
2018-11-07T00:52:57.333Z,8.29
2018-11-07T00:53:57.244Z,8.26
2018-11-07T00:54:57.254Z,8.27
2018-11-07T00:55:57.449Z,8.27
2018-11-07T00:56:57.338Z,8.26
2018-11-07T00:57:57.444Z,8.27
2018-11-07T00:58:57.299Z,8.23
2018-11-07T00:59:57.230Z,8.23
2018-11-07T01:00:57.245Z,8.23
2018-11-07T01:01:57.256Z,8.21
2018-11-07T01:02:57.650Z,8.23
2018-11-07T01:03:57.264Z,8.23
2018-11-07T01:04:57.277Z,8.2
2018-11-07T01:05:57.222Z,8.19
2018-11-07T01:06:57.206Z,8.21
2018-11-07T01:07:57.204Z,8.2
2018-11-07T01:08:57.279Z,8.2
2018-11-07T01:09:57.218Z,8.17
2018-11-07T01:10:57.598Z,8.19
2018-11-07T01:11:57.210Z,8.16
2018-11-07T01:12:57.357Z,8.14
2018-11-07T01:13:57.420Z,8.16
2018-11-07T01:14:57.317Z,8.14
2018-11-07T01:15:57.275Z,8.14
2018-11-07T01:16:57.208Z,8.13
2018-11-07T01:17:57.191Z,8.12
2018-11-07T01:18:57.595Z,8.1
2018-11-07T01:19:57.202Z,8.1
2018-11-07T01:20:57.205Z,8.12
2018-11-07T01:21:57.233Z,8.14
2018-11-07T01:22:57.185Z,8.13
2018-11-07T01:23:57.237Z,8.13
2018-11-07T01:24:57.198Z,8.13
2018-11-07T01:25:57.376Z,8.1
2018-11-07T01:26:57.199Z,8.08
2018-11-07T01:27:57.178Z,8.06
2018-11-07T01:28:57.293Z,8.06
2018-11-07T01:29:57.214Z,8.08
2018-11-07T01:30:57.281Z,8.06
2018-11-07T01:31:57.193Z,8.08
2018-11-07T01:32:57.178Z,8.05
2018-11-07T01:33:57.156Z,8.08
2018-11-07T01:34:57.179Z,8.05
2018-11-07T01:35:57.209Z,8.06
2018-11-07T01:36:57.191Z,8.05
2018-11-07T01:37:57.168Z,8.08
2018-11-07T01:38:57.191Z,8.08
2018-11-07T01:39:57.404Z,8.03
2018-11-07T01:40:57.322Z,8.06
2018-11-07T01:41:57.437Z,8.03
2018-11-07T01:42:57.148Z,8.06
2018-11-07T01:43:57.459Z,8.08
2018-11-07T01:44:57.529Z,8.06
2018-11-07T01:45:57.205Z,8.08
2018-11-07T01:46:57.440Z,8.06
2018-11-07T01:47:57.264Z,8.06
2018-11-07T01:48:57.168Z,8.05
2018-11-07T01:49:57.555Z,8.05
2018-11-07T01:50:57.203Z,8.02
2018-11-07T01:51:57.290Z,8.01
2018-11-07T01:52:57.541Z,8.01
2018-11-07T01:53:57.202Z,8.01
2018-11-07T01:54:57.140Z,7.99
2018-11-07T01:55:57.222Z,8.01
2018-11-07T01:56:57.173Z,8.01
2018-11-07T01:57:57.173Z,7.98
2018-11-07T01:58:57.329Z,7.99
2018-11-07T01:59:57.277Z,7.98
2018-11-07T02:00:57.139Z,8.02
2018-11-07T02:01:57.252Z,8.02
2018-11-07T02:02:57.206Z,8.02
2018-11-07T02:03:57.306Z,8.05
2018-11-07T02:04:57.125Z,8.03
2018-11-07T02:05:57.254Z,8.01
2018-11-07T02:06:57.167Z,8.02
2018-11-07T02:07:57.137Z,8.02
2018-11-07T02:08:57.387Z,8.02
2018-11-07T02:09:57.403Z,8.02
2018-11-07T02:10:57.109Z,8.05
2018-11-07T02:11:57.215Z,8.03
2018-11-07T02:12:57.110Z,8.05
2018-11-07T02:13:57.244Z,8.06
2018-11-07T02:14:57.194Z,8.06
2018-11-07T02:15:57.454Z,8.05
2018-11-07T02:16:57.287Z,8.02
2018-11-07T02:17:57.218Z,8.01
2018-11-07T02:18:57.295Z,8.01
2018-11-07T02:19:57.113Z,7.96
2018-11-07T02:20:57.114Z,7.96
2018-11-07T02:21:57.095Z,7.93
2018-11-07T02:22:57.382Z,7.91
2018-11-07T02:23:57.531Z,7.88
2018-11-07T02:24:57.303Z,7.86
2018-11-07T02:25:57.122Z,7.86
2018-11-07T02:26:57.126Z,7.81
2018-11-07T02:27:57.201Z,7.8
2018-11-07T02:28:57.085Z,7.81
2018-11-07T02:29:57.148Z,7.81
2018-11-07T02:30:57.242Z,7.78
2018-11-07T02:31:57.106Z,7.78
2018-11-07T02:32:57.124Z,7.8
2018-11-07T02:33:57.151Z,7.8
2018-11-07T02:34:57.224Z,7.78
2018-11-07T02:35:57.088Z,7.78
2018-11-07T02:36:57.450Z,7.78
2018-11-07T02:37:57.174Z,7.81
2018-11-07T02:38:57.150Z,7.84
2018-11-07T02:39:57.226Z,7.82
2018-11-07T02:40:57.039Z,7.84
2018-11-07T02:41:57.869Z,7.84
2018-11-07T02:42:57.170Z,7.84
2018-11-07T02:43:57.085Z,7.84
2018-11-07T02:44:57.097Z,7.84
2018-11-07T02:45:57.173Z,7.86
2018-11-07T02:46:57.216Z,7.88
2018-11-07T02:47:57.091Z,7.85
2018-11-07T02:48:57.531Z,7.82
2018-11-07T02:49:57.053Z,7.85
2018-11-07T02:50:57.122Z,7.84
2018-11-07T02:51:57.071Z,7.85
2018-11-07T02:52:57.062Z,7.82
2018-11-07T02:53:57.065Z,7.85
2018-11-07T02:54:57.172Z,7.82
2018-11-07T02:55:57.093Z,7.82
2018-11-07T02:56:57.094Z,7.85
2018-11-07T02:57:57.098Z,7.81
2018-11-07T02:58:57.421Z,7.81
2018-11-07T02:59:57.078Z,7.82
2018-11-07T03:00:57.354Z,7.81
2018-11-07T03:01:57.112Z,7.78
2018-11-07T03:02:57.067Z,7.74
2018-11-07T03:03:57.769Z,7.74
2018-11-07T03:04:57.066Z,7.72
2018-11-07T03:05:57.043Z,7.74
2018-11-07T03:06:57.515Z,7.75
2018-11-07T03:07:57.050Z,7.72
2018-11-07T03:08:57.183Z,7.71
2018-11-07T03:09:57.170Z,7.72
2018-11-07T03:10:57.154Z,7.68
2018-11-07T03:11:57.088Z,7.68
2018-11-07T03:12:57.430Z,7.71
2018-11-07T03:13:57.017Z,7.67
2018-11-07T03:14:57.051Z,7.67
2018-11-07T03:15:57.478Z,7.68
2018-11-07T03:16:57.243Z,7.71
2018-11-07T03:17:57.120Z,7.69
2018-11-07T03:18:57.120Z,7.71
2018-11-07T03:19:57.025Z,7.72
2018-11-07T03:20:57.033Z,7.69
2018-11-07T03:21:57.067Z,7.71
2018-11-07T03:22:57.022Z,7.69
2018-11-07T03:23:57.156Z,7.69
2018-11-07T03:24:57.135Z,7.68
2018-11-07T03:25:57.421Z,7.68
2018-11-07T03:26:57.210Z,7.69
2018-11-07T03:27:57.255Z,7.68
2018-11-07T03:28:57.243Z,7.68
2018-11-07T03:29:57.446Z,7.69
2018-11-07T03:30:57.018Z,7.69
2018-11-07T03:31:57.244Z,7.68
2018-11-07T03:32:57.145Z,7.68
2018-11-07T03:33:57.212Z,7.71
2018-11-07T03:34:57.491Z,7.69
2018-11-07T03:35:57.139Z,7.68
2018-11-07T03:36:57.174Z,7.69
2018-11-07T03:37:57.180Z,7.68
2018-11-07T03:38:57.060Z,7.67
2018-11-07T03:39:57.459Z,7.67
2018-11-07T03:40:57.239Z,7.62
2018-11-07T03:41:57.067Z,7.64
2018-11-07T03:42:57.029Z,7.64
2018-11-07T03:43:57.027Z,7.65
2018-11-07T03:44:57.065Z,7.65
2018-11-07T03:45:57.029Z,7.67
2018-11-07T03:46:57.049Z,7.65
2018-11-07T03:47:57.033Z,7.67
2018-11-07T03:48:57.025Z,7.67
2018-11-07T03:49:57.040Z,7.67
2018-11-07T03:50:57.118Z,7.68
2018-11-07T03:51:57.392Z,7.67
2018-11-07T03:52:57.250Z,7.65
2018-11-07T03:53:57.048Z,7.67
2018-11-07T03:54:57.404Z,7.67
2018-11-07T03:55:57.308Z,7.68
2018-11-07T03:56:57.024Z,7.68
2018-11-07T03:57:57.069Z,7.65
2018-11-07T03:58:57.076Z,7.67
2018-11-07T03:59:57.045Z,7.68
2018-11-07T04:00:57.131Z,7.64
2018-11-07T04:01:56.975Z,7.64
2018-11-07T04:02:57.169Z,7.62
2018-11-07T04:03:57.256Z,7.67
2018-11-07T04:04:57.166Z,7.65
2018-11-07T04:05:57.143Z,7.65
2018-11-07T04:06:57.083Z,7.68
2018-11-07T04:07:57.073Z,7.67
2018-11-07T04:08:57.131Z,7.64
2018-11-07T04:09:57.047Z,7.64
2018-11-07T04:10:56.958Z,7.62
2018-11-07T04:11:57.095Z,7.64
2018-11-07T04:12:57.364Z,7.62
2018-11-07T04:13:56.947Z,7.64
2018-11-07T04:14:56.978Z,7.65
2018-11-07T04:15:57.031Z,7.65
2018-11-07T04:16:56.988Z,7.61
2018-11-07T04:17:57.059Z,7.64
2018-11-07T04:18:57.065Z,7.64
2018-11-07T04:19:57.001Z,7.62
2018-11-07T04:20:56.987Z,7.62
2018-11-07T04:21:56.945Z,7.61
2018-11-07T04:22:56.950Z,7.61
2018-11-07T04:23:56.967Z,7.55
2018-11-07T04:24:56.941Z,7.55
2018-11-07T04:25:56.929Z,7.53
2018-11-07T04:26:57.211Z,7.53
2018-11-07T04:27:56.936Z,7.51
2018-11-07T04:28:57.132Z,7.5
2018-11-07T04:29:56.968Z,7.46
2018-11-07T04:30:56.972Z,7.44
2018-11-07T04:31:57.050Z,7.44
2018-11-07T04:32:56.918Z,7.43
2018-11-07T04:33:56.985Z,7.41
2018-11-07T04:34:56.969Z,7.41
2018-11-07T04:35:56.934Z,7.39
2018-11-07T04:36:56.991Z,7.37
2018-11-07T04:37:57.090Z,7.36
2018-11-07T04:38:57.166Z,7.33
2018-11-07T04:39:57.427Z,7.33
2018-11-07T04:40:57.011Z,7.3
2018-11-07T04:41:57.065Z,7.29
2018-11-07T04:42:57.014Z,7.27
2018-11-07T04:43:57.051Z,7.23
2018-11-07T04:44:57.601Z,7.24
2018-11-07T04:45:56.978Z,7.24
2018-11-07T04:46:57.064Z,7.24
2018-11-07T04:47:56.981Z,7.23
2018-11-07T04:48:57.017Z,7.24
2018-11-07T04:49:56.929Z,7.23
2018-11-07T04:50:57.003Z,7.22
2018-11-07T04:51:57.188Z,7.23
2018-11-07T04:52:56.982Z,7.22
2018-11-07T04:53:57.103Z,7.22
2018-11-07T04:54:56.975Z,7.19
2018-11-07T04:55:56.989Z,7.19
2018-11-07T04:56:56.968Z,7.18
2018-11-07T04:57:57.122Z,7.16
2018-11-07T04:58:57.046Z,7.13
2018-11-07T04:59:57.020Z,7.13
2018-11-07T05:00:57.138Z,7.13
2018-11-07T05:01:57.245Z,7.12
2018-11-07T05:02:56.902Z,7.09
2018-11-07T05:03:56.919Z,7.08
2018-11-07T05:04:56.873Z,7.08
2018-11-07T05:05:57.070Z,7.08
2018-11-07T05:06:57.041Z,7.05
2018-11-07T05:07:57.510Z,7.03
2018-11-07T05:08:56.985Z,7.05
2018-11-07T05:09:56.989Z,7.02
2018-11-07T05:10:57.012Z,6.99
2018-11-07T05:11:56.911Z,6.96
2018-11-07T05:12:57.036Z,6.96
2018-11-07T05:13:57.034Z,6.98
2018-11-07T05:14:56.938Z,6.98
2018-11-07T05:15:56.853Z,6.96
2018-11-07T05:16:56.954Z,6.99
2018-11-07T05:17:56.964Z,6.99
2018-11-07T05:18:57.168Z,7.01
2018-11-07T05:19:57.072Z,7.01
2018-11-07T05:20:56.884Z,7.01
2018-11-07T05:21:57.087Z,7.05
2018-11-07T05:22:57.004Z,7.03
2018-11-07T05:23:56.958Z,7.02
2018-11-07T05:24:56.952Z,7.01
2018-11-07T05:25:56.888Z,7.01
2018-11-07T05:26:56.954Z,6.99
2018-11-07T05:27:56.829Z,7.02
2018-11-07T05:28:57.059Z,6.99
2018-11-07T05:29:56.922Z,6.96
2018-11-07T05:30:57.095Z,6.98
2018-11-07T05:31:57.138Z,6.98
2018-11-07T05:32:56.935Z,7.01
2018-11-07T05:33:57.199Z,7.02
2018-11-07T05:34:56.963Z,6.98
2018-11-07T05:35:56.921Z,6.99
2018-11-07T05:36:56.996Z,7.01
2018-11-07T05:37:57.087Z,7.01
2018-11-07T05:38:57.400Z,7.03
2018-11-07T05:39:57.097Z,6.99
2018-11-07T05:40:57.445Z,7.01
2018-11-07T05:41:57.140Z,7.03
2018-11-07T05:42:57.272Z,7.03
2018-11-07T05:43:57.137Z,7.05
2018-11-07T05:44:57.178Z,7.05
2018-11-07T05:45:56.946Z,7.08
2018-11-07T05:46:56.815Z,7.05
2018-11-07T05:47:56.862Z,7.08
2018-11-07T05:48:57.098Z,7.08
2018-11-07T05:49:56.814Z,7.06
2018-11-07T05:50:56.990Z,7.05
2018-11-07T05:51:56.817Z,7.05
2018-11-07T05:52:56.853Z,7.05
2018-11-07T05:53:57.124Z,7.03
2018-11-07T05:54:56.810Z,7.03
2018-11-07T05:55:56.866Z,7.03
2018-11-07T05:56:56.826Z,7.02
2018-11-07T05:57:56.815Z,7.01
2018-11-07T05:58:56.778Z,7.03
2018-11-07T05:59:56.808Z,7.03
2018-11-07T06:00:56.792Z,7.05
2018-11-07T06:01:56.792Z,7.03
2018-11-07T06:02:56.793Z,7.03
2018-11-07T06:03:56.807Z,7.02
2018-11-07T06:04:57.083Z,7.05
2018-11-07T06:05:56.821Z,7.06
2018-11-07T06:06:56.978Z,7.06
2018-11-07T06:07:56.799Z,7.08
2018-11-07T06:08:57.001Z,7.09
2018-11-07T06:09:57.125Z,7.09
2018-11-07T06:10:56.998Z,7.11
2018-11-07T06:11:57.132Z,7.11
2018-11-07T06:12:56.847Z,7.16
2018-11-07T06:13:57.700Z,7.16
2018-11-07T06:14:56.916Z,7.19
2018-11-07T06:15:57.066Z,7.15
2018-11-07T06:16:56.915Z,7.22
2018-11-07T06:17:57.137Z,7.22
2018-11-07T06:18:57.116Z,7.2
2018-11-07T06:19:57.281Z,7.18
2018-11-07T06:20:57.166Z,7.2
2018-11-07T06:21:56.765Z,7.2
2018-11-07T06:22:59.192Z,7.19
2018-11-07T06:23:57.128Z,7.24
2018-11-07T06:24:57.483Z,7.23
2018-11-07T06:25:57.303Z,7.26
2018-11-07T06:26:56.938Z,7.29
2018-11-07T06:27:57.141Z,7.29
2018-11-07T06:28:56.965Z,7.27
2018-11-07T06:29:56.779Z,7.3
2018-11-07T06:30:56.813Z,7.27
2018-11-07T06:31:56.757Z,7.3
2018-11-07T06:32:57.173Z,7.33
2018-11-07T06:33:57.009Z,7.33
2018-11-07T06:34:56.778Z,7.33
2018-11-07T06:35:56.757Z,7.39
2018-11-07T06:36:57.137Z,7.39
2018-11-07T06:37:56.870Z,7.37
2018-11-07T06:38:57.158Z,7.37
2018-11-07T06:39:56.939Z,7.39
2018-11-07T06:40:57.118Z,7.4
2018-11-07T06:41:57.026Z,7.41
2018-11-07T06:42:56.762Z,7.46
2018-11-07T06:43:56.817Z,7.46
2018-11-07T06:44:56.767Z,7.46
2018-11-07T06:45:57.130Z,7.46
2018-11-07T06:46:57.068Z,7.43
2018-11-07T06:47:56.820Z,7.43
2018-11-07T06:48:56.875Z,7.46
2018-11-07T06:49:56.720Z,7.47
2018-11-07T06:50:56.760Z,7.51
2018-11-07T06:51:56.796Z,7.51
2018-11-07T06:52:56.792Z,7.54
2018-11-07T06:53:56.753Z,7.55
2018-11-07T06:54:56.767Z,7.54
2018-11-07T06:55:56.851Z,7.54
2018-11-07T06:56:56.769Z,7.55
2018-11-07T06:57:56.874Z,7.55
2018-11-07T06:58:56.924Z,7.57
2018-11-07T06:59:56.716Z,7.54
2018-11-07T07:00:56.752Z,7.53
2018-11-07T07:01:56.827Z,7.53
2018-11-07T07:02:56.745Z,7.53
2018-11-07T07:03:56.762Z,7.5
2018-11-07T07:04:56.973Z,7.48
2018-11-07T07:05:56.824Z,7.5
2018-11-07T07:06:57.100Z,7.51
2018-11-07T07:07:57.100Z,7.5
2018-11-07T07:08:56.826Z,7.47
2018-11-07T07:09:56.710Z,7.47
2018-11-07T07:10:56.753Z,7.47
2018-11-07T07:11:56.753Z,7.48
2018-11-07T07:12:56.694Z,7.51
2018-11-07T07:13:57.090Z,7.53
2018-11-07T07:14:56.949Z,7.53
2018-11-07T07:15:56.753Z,7.53
2018-11-07T07:16:56.967Z,7.51
2018-11-07T07:17:56.951Z,7.57
2018-11-07T07:18:56.710Z,7.58
2018-11-07T07:19:56.709Z,7.61
2018-11-07T07:20:56.716Z,7.59
2018-11-07T07:21:56.688Z,7.64
2018-11-07T07:22:56.751Z,7.67
2018-11-07T07:23:56.679Z,7.68
2018-11-07T07:24:56.691Z,7.69
2018-11-07T07:25:56.823Z,7.72
2018-11-07T07:26:56.660Z,7.74
2018-11-07T07:27:56.734Z,7.75
2018-11-07T07:28:56.700Z,7.77
2018-11-07T07:29:57.129Z,7.77
2018-11-07T07:30:56.691Z,7.8
2018-11-07T07:31:56.712Z,7.81
2018-11-07T07:32:56.980Z,7.81
2018-11-07T07:33:56.713Z,7.84
2018-11-07T07:34:56.673Z,7.88
2018-11-07T07:35:56.653Z,7.89
2018-11-07T07:36:56.692Z,7.91
2018-11-07T07:37:57.535Z,7.92
2018-11-07T07:38:56.677Z,7.95
2018-11-07T07:39:56.690Z,7.96
2018-11-07T07:40:57.136Z,7.98
2018-11-07T07:41:56.794Z,7.99
2018-11-07T07:42:56.774Z,8.01
2018-11-07T07:43:56.706Z,8.05
2018-11-07T07:44:56.944Z,8.1
2018-11-07T07:45:56.687Z,8.1
2018-11-07T07:46:56.656Z,8.13
2018-11-07T07:47:56.737Z,8.17
2018-11-07T07:48:56.683Z,8.21
2018-11-07T07:49:56.679Z,8.26
2018-11-07T07:50:56.717Z,8.3
2018-11-07T07:51:56.700Z,8.31
2018-11-07T07:52:57.089Z,8.34
2018-11-07T07:53:56.742Z,8.38
2018-11-07T07:54:56.923Z,8.4
2018-11-07T07:55:56.650Z,8.47
2018-11-07T07:56:56.708Z,8.49
2018-11-07T07:57:57.073Z,8.49
2018-11-07T07:58:56.762Z,8.55
2018-11-07T07:59:56.730Z,8.58
2018-11-07T08:00:56.693Z,8.62
2018-11-07T08:01:56.658Z,8.62
2018-11-07T08:02:56.669Z,8.65
2018-11-07T08:03:56.988Z,8.66
2018-11-07T08:04:56.755Z,8.66
2018-11-07T08:05:56.665Z,8.72
2018-11-07T08:06:56.889Z,8.75
2018-11-07T08:07:56.792Z,8.76
2018-11-07T08:08:56.662Z,8.79
2018-11-07T08:09:56.703Z,8.82
2018-11-07T08:10:56.683Z,8.8
2018-11-07T08:11:56.758Z,8.8
2018-11-07T08:12:56.694Z,8.83
2018-11-07T08:13:57.243Z,8.85
2018-11-07T08:14:56.841Z,8.83
2018-11-07T08:15:56.609Z,8.85
2018-11-07T08:16:56.708Z,8.86
2018-11-07T08:17:57.020Z,8.88
2018-11-07T08:18:56.744Z,8.92
2018-11-07T08:19:56.701Z,8.96
2018-11-07T08:20:56.626Z,8.98
2018-11-07T08:21:56.770Z,9
2018-11-07T08:22:56.702Z,9.02
2018-11-07T08:23:56.645Z,9.06
2018-11-07T08:24:56.809Z,9.06
2018-11-07T08:25:56.677Z,9.1
2018-11-07T08:26:56.741Z,9.13
2018-11-07T08:27:56.701Z,9.14
2018-11-07T08:28:56.901Z,9.16
2018-11-07T08:29:56.757Z,9.2
2018-11-07T08:30:57.287Z,9.21
2018-11-07T08:31:56.800Z,9.26
2018-11-07T08:32:56.616Z,9.31
2018-11-07T08:33:56.603Z,9.34
2018-11-07T08:34:56.788Z,9.35
2018-11-07T08:35:56.626Z,9.35
2018-11-07T08:36:56.594Z,9.4
2018-11-07T08:37:56.766Z,9.44
2018-11-07T08:38:56.649Z,9.47
2018-11-07T08:39:56.638Z,9.52
2018-11-07T08:40:56.653Z,9.55
2018-11-07T08:41:56.600Z,9.59
2018-11-07T08:42:56.708Z,9.62
2018-11-07T08:43:56.708Z,9.66
2018-11-07T08:44:56.649Z,9.69
2018-11-07T08:45:56.533Z,9.73
2018-11-07T08:46:56.734Z,9.76
2018-11-07T08:47:56.663Z,9.81
2018-11-07T08:48:56.787Z,9.83
2018-11-07T08:49:56.637Z,9.83
2018-11-07T08:50:56.986Z,9.88
2018-11-07T08:51:56.560Z,9.96
2018-11-07T08:52:56.574Z,9.97
2018-11-07T08:53:56.642Z,10.02
2018-11-07T08:54:56.683Z,10.1
2018-11-07T08:55:56.595Z,10.13
2018-11-07T08:56:56.658Z,10.17
2018-11-07T08:57:56.592Z,10.21
2018-11-07T08:58:56.619Z,10.2
2018-11-07T08:59:56.681Z,10.23
2018-11-07T09:00:57.056Z,10.27
2018-11-07T09:01:56.711Z,10.28
2018-11-07T09:02:56.580Z,10.32
2018-11-07T09:03:56.847Z,10.31
2018-11-07T09:04:56.580Z,10.32
2018-11-07T09:05:56.544Z,10.38
2018-11-07T09:06:56.550Z,10.48
2018-11-07T09:07:56.609Z,10.45
2018-11-07T09:08:56.590Z,10.48
2018-11-07T09:09:56.565Z,10.52
2018-11-07T09:10:56.593Z,10.55
2018-11-07T09:11:56.673Z,10.58
2018-11-07T09:12:56.672Z,10.61
2018-11-07T09:13:56.570Z,10.68
2018-11-07T09:14:56.591Z,10.71
2018-11-07T09:15:57.267Z,10.73
2018-11-07T09:16:56.605Z,10.72
2018-11-07T09:17:56.558Z,10.79
2018-11-07T09:18:56.568Z,10.79
2018-11-07T09:19:56.882Z,10.82
2018-11-07T09:20:56.611Z,10.83
2018-11-07T09:21:56.554Z,10.87
2018-11-07T09:22:56.803Z,10.87
2018-11-07T09:23:56.639Z,10.89
2018-11-07T09:24:56.640Z,10.9
2018-11-07T09:25:56.815Z,10.93
2018-11-07T09:26:56.822Z,10.96
2018-11-07T09:27:56.562Z,10.97
2018-11-07T09:28:56.733Z,11.01
2018-11-07T09:29:56.647Z,11.06
2018-11-07T09:30:56.713Z,11.07
2018-11-07T09:31:56.627Z,11.1
2018-11-07T09:32:56.646Z,11.1
2018-11-07T09:33:56.590Z,11.12
2018-11-07T09:34:56.803Z,11.2
2018-11-07T09:35:56.506Z,11.2
2018-11-07T09:36:56.495Z,11.22
2018-11-07T09:37:56.902Z,11.27
2018-11-07T09:38:56.574Z,11.28
2018-11-07T09:39:56.846Z,11.32
2018-11-07T09:40:56.495Z,11.32
2018-11-07T09:41:56.596Z,11.37
2018-11-07T09:42:56.560Z,11.37
2018-11-07T09:43:56.621Z,11.44
2018-11-07T09:44:56.771Z,11.44
2018-11-07T09:45:56.739Z,11.45
2018-11-07T09:46:56.762Z,11.47
2018-11-07T09:47:56.593Z,11.54
2018-11-07T09:48:56.853Z,11.55
2018-11-07T09:49:56.924Z,11.56
2018-11-07T09:50:56.869Z,11.56
2018-11-07T09:51:56.499Z,11.61
2018-11-07T09:52:56.528Z,11.64
2018-11-07T09:53:56.888Z,11.64
2018-11-07T09:54:56.835Z,11.69
2018-11-07T09:55:56.494Z,11.73
2018-11-07T09:56:56.460Z,11.76
2018-11-07T09:57:56.812Z,11.79
2018-11-07T09:58:56.515Z,11.82
2018-11-07T09:59:56.537Z,11.82
2018-11-07T10:00:56.861Z,11.87
2018-11-07T10:01:56.673Z,11.92
2018-11-07T10:02:56.686Z,11.93
2018-11-07T10:03:56.472Z,11.98
2018-11-07T10:04:56.626Z,11.98
2018-11-07T10:05:56.672Z,12
2018-11-07T10:06:56.790Z,12.03
2018-11-07T10:07:56.474Z,12.05
2018-11-07T10:08:56.547Z,12.07
2018-11-07T10:09:56.470Z,12.08
2018-11-07T10:10:56.510Z,12.1
2018-11-07T10:11:56.485Z,12.14
2018-11-07T10:12:56.935Z,12.2
2018-11-07T10:13:56.600Z,12.21
2018-11-07T10:14:56.555Z,12.24
2018-11-07T10:15:56.478Z,12.25
2018-11-07T10:16:56.691Z,12.29
2018-11-07T10:17:56.472Z,12.34
2018-11-07T10:18:56.793Z,12.35
2018-11-07T10:19:56.474Z,12.35
2018-11-07T10:20:56.462Z,12.39
2018-11-07T10:21:56.593Z,12.39
2018-11-07T10:22:56.446Z,12.46
2018-11-07T10:23:56.437Z,12.44
2018-11-07T10:24:56.475Z,12.45
2018-11-07T10:25:56.419Z,12.48
2018-11-07T10:26:57.186Z,12.49
2018-11-07T10:27:58.422Z,12.53
2018-11-07T10:28:57.812Z,12.57
2018-11-07T10:29:58.450Z,12.57
2018-11-07T10:30:56.528Z,12.59
2018-11-07T10:31:56.464Z,12.62
2018-11-07T10:32:56.459Z,12.69
2018-11-07T10:33:56.552Z,12.67
2018-11-07T10:34:56.436Z,12.67
2018-11-07T10:35:56.423Z,12.69
2018-11-07T10:36:56.411Z,12.69
2018-11-07T10:37:56.804Z,12.74
2018-11-07T10:38:56.705Z,12.7
2018-11-07T10:39:56.842Z,12.67
2018-11-07T10:40:56.426Z,12.66
2018-11-07T10:41:56.486Z,12.62
2018-11-07T10:42:56.540Z,12.6
2018-11-07T10:43:56.775Z,12.56
2018-11-07T10:44:56.436Z,12.55
2018-11-07T10:45:56.699Z,12.53
2018-11-07T10:46:56.492Z,12.51
2018-11-07T10:47:56.777Z,12.51
2018-11-07T10:48:56.671Z,12.49
2018-11-07T10:49:56.628Z,12.48
2018-11-07T10:50:56.468Z,12.49
2018-11-07T10:51:56.890Z,12.49
2018-11-07T10:52:56.583Z,12.51
2018-11-07T10:53:56.445Z,12.56
2018-11-07T10:54:56.570Z,12.59
2018-11-07T10:55:56.451Z,12.65
2018-11-07T10:56:56.371Z,12.67
2018-11-07T10:57:56.414Z,12.76
2018-11-07T10:58:56.749Z,12.8
2018-11-07T10:59:56.515Z,12.84
2018-11-07T11:00:56.558Z,12.87
2018-11-07T11:01:56.412Z,12.87
2018-11-07T11:02:56.397Z,12.94
2018-11-07T11:03:56.441Z,13.03
2018-11-07T11:04:56.584Z,13.04
2018-11-07T11:05:56.475Z,13.11
2018-11-07T11:06:56.973Z,13.17
2018-11-07T11:07:56.541Z,13.27
2018-11-07T11:08:56.488Z,13.31
2018-11-07T11:09:56.608Z,13.35
2018-11-07T11:10:57.086Z,13.39
2018-11-07T11:11:56.432Z,13.39
2018-11-07T11:12:56.485Z,13.46
2018-11-07T11:13:56.515Z,13.46
2018-11-07T11:14:56.405Z,13.47
2018-11-07T11:15:56.559Z,13.5
2018-11-07T11:16:56.731Z,13.49
2018-11-07T11:17:56.458Z,13.5
2018-11-07T11:18:56.524Z,13.53
2018-11-07T11:19:56.382Z,13.57
2018-11-07T11:20:56.808Z,13.63
2018-11-07T11:21:56.466Z,13.7
2018-11-07T11:22:56.613Z,13.74
2018-11-07T11:23:56.375Z,13.79
2018-11-07T11:24:56.501Z,13.83
2018-11-07T11:25:58.983Z,13.8
2018-11-07T11:26:56.578Z,13.77
2018-11-07T11:27:56.373Z,13.76
2018-11-07T11:28:56.587Z,13.76
2018-11-07T11:29:57.207Z,13.8
2018-11-07T11:30:56.321Z,13.82
2018-11-07T11:31:56.337Z,13.89
2018-11-07T11:32:56.477Z,13.94
2018-11-07T11:33:56.985Z,13.97
2018-11-07T11:34:57.079Z,13.96
2018-11-07T11:35:56.825Z,14.01
2018-11-07T11:36:56.478Z,14.02
2018-11-07T11:37:56.371Z,14.02
2018-11-07T11:38:56.416Z,14.05
2018-11-07T11:39:56.473Z,14.17
2018-11-07T11:40:56.712Z,14.12
2018-11-07T11:41:56.354Z,14.18
2018-11-07T11:42:56.789Z,14.18
2018-11-07T11:43:56.381Z,14.21
2018-11-07T11:44:56.319Z,14.22
2018-11-07T11:45:56.489Z,14.24
2018-11-07T11:46:56.493Z,14.22
2018-11-07T11:47:56.508Z,14.25
2018-11-07T11:48:56.504Z,14.29
2018-11-07T11:49:56.442Z,14.29
2018-11-07T11:50:56.344Z,14.32
2018-11-07T11:51:56.319Z,14.36
2018-11-07T11:52:56.341Z,14.4
2018-11-07T11:53:56.319Z,14.42
2018-11-07T11:54:56.369Z,14.42
2018-11-07T11:55:56.325Z,14.42
2018-11-07T11:56:56.341Z,14.45
2018-11-07T11:57:56.708Z,14.48
2018-11-07T11:58:56.903Z,14.48
2018-11-07T11:59:57.945Z,14.49
2018-11-07T12:00:56.313Z,14.49
2018-11-07T12:01:56.319Z,14.49
2018-11-07T12:02:56.344Z,14.51
2018-11-07T12:03:56.436Z,14.59
2018-11-07T12:04:56.296Z,14.59
2018-11-07T12:05:56.301Z,14.6
2018-11-07T12:06:56.323Z,14.63
2018-11-07T12:07:56.383Z,14.64
2018-11-07T12:08:56.649Z,14.66
2018-11-07T12:09:56.298Z,14.66
2018-11-07T12:10:56.342Z,14.72
2018-11-07T12:11:56.417Z,14.69
2018-11-07T12:12:56.403Z,14.67
2018-11-07T12:13:56.358Z,14.69
2018-11-07T12:14:56.406Z,14.69
2018-11-07T12:15:56.376Z,14.69
2018-11-07T12:16:56.317Z,14.72
2018-11-07T12:17:56.295Z,14.77
2018-11-07T12:18:56.401Z,14.76
2018-11-07T12:19:56.701Z,14.8
2018-11-07T12:20:56.349Z,14.83
2018-11-07T12:21:56.448Z,14.87
2018-11-07T12:22:56.382Z,14.87
2018-11-07T12:23:56.276Z,14.91
2018-11-07T12:24:56.381Z,14.94
2018-11-07T12:25:56.403Z,14.94
2018-11-07T12:26:56.849Z,14.94
2018-11-07T12:27:56.591Z,14.95
2018-11-07T12:28:56.383Z,14.91
2018-11-07T12:29:56.271Z,14.91
2018-11-07T12:30:56.275Z,14.9
2018-11-07T12:31:56.282Z,14.9
2018-11-07T12:32:57.496Z,14.91
2018-11-07T12:33:56.427Z,14.94
2018-11-07T12:34:56.343Z,14.92
2018-11-07T12:35:56.316Z,14.95
2018-11-07T12:36:56.482Z,14.95
2018-11-07T12:37:56.531Z,14.98
2018-11-07T12:38:56.287Z,14.98
2018-11-07T12:39:56.470Z,15
2018-11-07T12:40:56.410Z,15.01
2018-11-07T12:41:56.363Z,15.01
2018-11-07T12:42:56.841Z,15.02
2018-11-07T12:43:56.666Z,15.01
2018-11-07T12:44:56.238Z,15
2018-11-07T12:45:56.281Z,15
2018-11-07T12:46:56.328Z,15
2018-11-07T12:47:56.297Z,15.05
2018-11-07T12:48:56.239Z,15.11
2018-11-07T12:49:56.604Z,15.21
2018-11-07T12:50:56.375Z,15.25
2018-11-07T12:51:56.371Z,15.19
2018-11-07T12:52:56.295Z,15.17
2018-11-07T12:53:56.237Z,15.12
2018-11-07T12:54:56.280Z,15.12
2018-11-07T12:55:56.417Z,15.14
2018-11-07T12:56:56.454Z,15.14
2018-11-07T12:57:57.119Z,15.31
2018-11-07T12:58:56.239Z,15.35
2018-11-07T12:59:56.352Z,15.38
2018-11-07T13:00:56.312Z,15.45
2018-11-07T13:01:56.286Z,15.39
2018-11-07T13:02:58.991Z,15.46
2018-11-07T13:03:56.481Z,15.42
2018-11-07T13:04:56.673Z,15.46
2018-11-07T13:05:56.918Z,15.46
2018-11-07T13:06:56.452Z,15.52
2018-11-07T13:07:56.485Z,15.54
2018-11-07T13:08:56.277Z,15.52
2018-11-07T13:09:56.181Z,15.45
2018-11-07T13:10:56.257Z,15.38
2018-11-07T13:11:56.252Z,15.39
2018-11-07T13:12:56.558Z,15.35